Time;durP1;ratioP1;P1;durP2;ratioP2;P2;SDS_P1;SDS_P2;PMS_P1;PMS_P2;Temp;Humidity;BMP_temperature;BMP_pressure;BME280_temperature;BME280_humidity;BME280_pressure;Samples;Min_cycle;Max_cycle;Signal;HPM_P1;HPM_P2
2023/07/10 00:00:48;;;;;;;3.13;2.83;;;22.10;99.90;;;;;;4991101;28;20471;-69
2023/07/10 00:03:14;;;;;;;3.23;2.77;;;22.10;99.90;;;;;;4990491;28;20957;-68
2023/07/10 00:05:41;;;;;;;3.40;3.10;;;22.10;99.90;;;;;;4990493;28;20464;-68
2023/07/10 00:08:08;;;;;;;3.20;2.90;;;22.20;99.90;;;;;;4988162;28;20488;-68
2023/07/10 00:10:34;;;;;;;3.00;2.73;;;22.30;99.90;;;;;;4990709;28;20465;-68
2023/07/10 00:13:01;;;;;;;5.67;3.77;;;22.30;99.90;;;;;;4990571;28;20477;-68
2023/07/10 00:15:29;;;;;;;4.10;3.00;;;22.40;99.90;;;;;;4990294;28;20465;-68
2023/07/10 00:17:56;;;;;;;4.37;2.80;;;22.50;99.90;;;;;;4990526;28;20488;-68
2023/07/10 00:20:27;;;;;;;3.50;3.00;;;22.50;99.90;;;;;;4990741;28;20465;-69
2023/07/10 00:22:54;;;;;;;3.67;3.27;;;22.60;99.70;;;;;;4990670;28;20469;-69
2023/07/10 00:25:21;;;;;;;5.20;3.47;;;22.70;99.20;;;;;;4990093;28;20524;-68
2023/07/10 00:27:49;;;;;;;5.23;3.07;;;22.80;99.00;;;;;;4990730;28;20490;-68
2023/07/10 00:30:19;;;;;;;4.17;2.97;;;22.90;99.00;;;;;;4990680;28;20469;-68
2023/07/10 00:32:51;;;;;;;3.20;2.90;;;22.90;98.90;;;;;;4990598;28;20476;-68
2023/07/10 00:35:19;;;;;;;3.30;3.00;;;23.00;99.10;;;;;;4990285;28;20543;-69
2023/07/10 00:37:49;;;;;;;3.87;3.47;;;23.00;99.20;;;;;;4990195;28;20512;-68
2023/07/10 00:40:19;;;;;;;3.47;2.90;;;23.00;99.00;;;;;;4990615;28;20467;-69
2023/07/10 00:42:46;;;;;;;3.33;3.03;;;23.00;98.90;;;;;;4990096;28;20646;-69
2023/07/10 00:45:16;;;;;;;3.67;2.80;;;23.10;98.60;;;;;;4989916;28;20887;-69
2023/07/10 00:47:56;;;;;;;3.83;3.33;;;23.10;98.70;;;;;;4990211;28;21087;-69
2023/07/10 00:50:31;;;;;;;4.20;3.10;;;23.10;98.70;;;;;;4990537;28;20838;-69
2023/07/10 00:53:00;;;;;;;3.43;2.77;;;23.10;99.30;;;;;;4990697;28;21069;-67
2023/07/10 00:55:31;;;;;;;3.40;2.73;;;23.10;99.90;;;;;;4989859;28;20462;-67
2023/07/10 00:58:06;;;;;;;3.43;2.97;;;23.00;99.90;;;;;;4990593;28;20568;-68
2023/07/10 01:00:34;;;;;;;3.83;3.30;;;23.00;99.90;;;;;;4988266;28;20485;-67
2023/07/10 01:03:01;;;;;;;3.03;2.73;;;22.90;99.90;;;;;;4990300;28;20466;-67
2023/07/10 01:05:32;;;;;;;2.90;2.60;;;22.90;99.90;;;;;;4986215;28;20513;-68
2023/07/10 01:08:01;;;;;;;3.20;2.90;;;22.80;99.90;;;;;;4988919;28;21010;-68
2023/07/10 01:10:28;;;;;;;3.20;2.73;;;22.80;99.90;;;;;;4990246;28;20458;-68
2023/07/10 01:12:55;;;;;;;4.10;2.93;;;22.70;99.90;;;;;;4990371;28;20493;-67
2023/07/10 01:15:22;;;;;;;3.43;3.13;;;22.60;99.90;;;;;;4989770;28;20973;-67
2023/07/10 01:17:49;;;;;;;3.00;2.70;;;22.50;99.90;;;;;;4990749;28;20493;-67
2023/07/10 01:20:35;;;;;;;3.67;2.67;;;22.40;99.90;;;;;;4990178;28;21052;-67
2023/07/10 01:23:05;;;;;;;4.87;3.10;;;22.30;99.90;;;;;;4990331;28;20974;-67
2023/07/10 01:25:37;;;;;;;4.23;3.53;;;22.30;99.90;;;;;;4989631;28;20516;-69
2023/07/10 01:28:09;;;;;;;3.17;2.87;;;22.20;99.90;;;;;;4990309;28;20915;-68
2023/07/10 01:30:38;;;;;;;4.23;3.00;;;22.10;99.90;;;;;;4990149;28;20572;-68
2023/07/10 01:33:10;;;;;;;4.40;3.07;;;22.10;99.90;;;;;;4990279;28;20876;-67
2023/07/10 01:35:37;;;;;;;4.40;4.00;;;22.00;99.90;;;;;;4991697;28;20484;-67
2023/07/10 01:38:05;;;;;;;4.43;3.20;;;21.90;99.90;;;;;;4992681;28;20490;-68
2023/07/10 01:40:37;;;;;;;4.80;3.43;;;21.90;99.90;;;;;;4993189;28;20464;-67
2023/07/10 01:43:04;;;;;;;4.03;3.43;;;21.80;99.90;;;;;;4993697;28;20471;-67
2023/07/10 01:45:41;;;;;;;3.80;3.47;;;21.80;99.90;;;;;;4992723;28;20463;-67
2023/07/10 01:48:09;;;;;;;6.10;3.90;;;21.80;99.90;;;;;;4993393;28;20514;-67
2023/07/10 01:50:36;;;;;;;4.03;3.40;;;21.80;99.90;;;;;;4977400;28;20472;-67
2023/07/10 01:53:04;;;;;;;3.47;3.10;;;21.80;99.90;;;;;;4993530;28;20492;-67
2023/07/10 01:55:33;;;;;;;4.37;3.90;;;21.80;99.90;;;;;;4992508;28;20493;-67
2023/07/10 01:58:00;;;;;;;4.40;4.00;;;21.80;99.90;;;;;;4993380;28;20492;-67
2023/07/10 02:00:27;;;;;;;4.50;3.27;;;21.80;99.90;;;;;;4993139;28;20480;-68
2023/07/10 02:02:54;;;;;;;4.10;3.30;;;21.70;99.90;;;;;;4993428;28;20467;-68
2023/07/10 02:05:20;;;;;;;3.30;2.93;;;21.70;99.90;;;;;;4992478;28;20840;-67
2023/07/10 02:07:47;;;;;;;5.80;3.80;;;21.60;99.90;;;;;;4993181;28;20868;-68
2023/07/10 02:10:15;;;;;;;4.00;3.13;;;21.60;99.90;;;;;;4993053;28;20532;-68
2023/07/10 02:12:43;;;;;;;5.77;3.30;;;21.60;99.90;;;;;;4992919;28;20460;-68
2023/07/10 02:15:10;;;;;;;4.80;3.33;;;21.50;99.90;;;;;;4992476;28;20475;-68
2023/07/10 02:17:37;;;;;;;4.13;3.47;;;21.50;99.90;;;;;;4992749;28;20490;-68
2023/07/10 02:20:05;;;;;;;5.40;3.80;;;21.40;99.90;;;;;;4992795;28;20845;-68
2023/07/10 02:22:32;;;;;;;3.40;3.10;;;21.40;99.90;;;;;;4992584;28;20567;-68
2023/07/10 02:24:58;;;;;;;4.70;3.30;;;21.40;99.90;;;;;;4992433;28;20464;-68
2023/07/10 02:27:26;;;;;;;3.87;3.47;;;21.30;99.90;;;;;;4992444;28;20551;-68
2023/07/10 02:29:53;;;;;;;3.47;3.20;;;21.30;99.90;;;;;;4992883;28;20868;-68
2023/07/10 02:32:20;;;;;;;4.67;3.83;;;21.30;99.90;;;;;;4992658;28;20984;-68
2023/07/10 02:34:46;;;;;;;4.07;3.67;;;21.30;99.90;;;;;;4991860;28;21052;-68
2023/07/10 02:37:13;;;;;;;3.90;3.50;;;21.30;99.90;;;;;;4992734;28;20468;-68
2023/07/10 02:39:40;;;;;;;4.27;3.87;;;21.20;99.90;;;;;;4992489;28;20504;-68
2023/07/10 02:42:07;;;;;;;4.90;4.00;;;21.20;99.90;;;;;;4992559;28;20465;-68
2023/07/10 02:44:35;;;;;;;4.23;3.83;;;21.30;99.90;;;;;;4991619;28;21033;-68
2023/07/10 02:47:02;;;;;;;4.13;3.70;;;21.30;99.90;;;;;;4991471;28;20459;-69
2023/07/10 02:49:28;;;;;;;3.90;3.30;;;21.30;99.90;;;;;;4992265;28;20920;-68
2023/07/10 02:51:55;;;;;;;4.83;4.00;;;21.40;99.90;;;;;;4992454;28;21009;-67
2023/07/10 02:54:21;;;;;;;5.00;4.30;;;21.40;99.90;;;;;;4991498;28;20919;-68
2023/07/10 02:56:48;;;;;;;4.30;3.47;;;21.40;99.90;;;;;;4992078;28;20880;-67
2023/07/10 02:59:15;;;;;;;4.90;3.73;;;21.50;99.90;;;;;;4992102;28;20495;-67
2023/07/10 03:01:43;;;;;;;5.57;3.70;;;21.50;99.90;;;;;;4991841;28;20960;-69
2023/07/10 03:04:09;;;;;;;3.90;3.60;;;21.50;99.90;;;;;;4991633;28;20461;-68
2023/07/10 03:06:36;;;;;;;4.30;3.93;;;21.50;99.90;;;;;;4991643;28;20466;-67
2023/07/10 03:09:07;;;;;;;4.53;3.53;;;21.50;99.90;;;;;;4991033;28;20487;-68
2023/07/10 03:11:34;;;;;;;5.60;3.90;;;21.50;99.90;;;;;;4991521;28;20467;-67
2023/07/10 03:14:02;;;;;;;6.00;4.07;;;21.50;99.90;;;;;;4991694;28;20471;-68
2023/07/10 03:16:29;;;;;;;4.67;4.27;;;21.50;99.90;;;;;;4991732;28;20467;-68
2023/07/10 03:18:57;;;;;;;6.83;4.10;;;21.60;99.90;;;;;;4992017;28;20491;-68
2023/07/10 03:21:24;;;;;;;7.67;3.87;;;21.50;99.90;;;;;;4988079;28;20464;-69
2023/07/10 03:23:52;;;;;;;4.83;4.00;;;21.50;99.90;;;;;;4991018;28;20469;-69
2023/07/10 03:26:18;;;;;;;5.60;4.40;;;21.50;99.90;;;;;;4987779;28;20472;-69
2023/07/10 03:28:45;;;;;;;6.00;4.47;;;21.50;99.90;;;;;;4974916;28;20487;-68
2023/07/10 03:31:12;;;;;;;5.93;4.23;;;21.50;99.90;;;;;;4973443;28;20466;-67
2023/07/10 03:33:38;;;;;;;4.83;3.80;;;21.40;99.90;;;;;;4972298;28;20469;-67
2023/07/10 03:36:08;;;;;;;7.57;4.60;;;21.40;99.90;;;;;;4971388;28;20484;-68
2023/07/10 03:38:35;;;;;;;5.93;4.20;;;21.40;99.90;;;;;;4973449;28;20492;-68
2023/07/10 03:41:02;;;;;;;4.63;3.60;;;21.40;99.90;;;;;;4974413;28;20469;-68
2023/07/10 03:43:29;;;;;;;4.65;4.15;;;21.40;99.90;;;;;;4973838;28;20816;-68
2023/07/10 03:45:56;;;;;;;6.23;3.60;;;21.40;99.90;;;;;;4971369;28;20253;-68
2023/07/10 03:48:23;;;;;;;5.40;4.17;;;21.40;99.90;;;;;;4976874;28;20493;-67
2023/07/10 03:50:50;;;;;;;4.57;3.73;;;21.40;99.90;;;;;;4975058;28;20466;-68
2023/07/10 03:53:18;;;;;;;4.70;4.30;;;21.40;99.90;;;;;;4973884;28;21237;-68
2023/07/10 03:55:49;;;;;;;4.43;3.73;;;21.40;99.90;;;;;;4974951;28;20483;-68
2023/07/10 03:58:19;;;;;;;5.40;3.53;;;21.40;99.90;;;;;;4973402;28;20518;-67
2023/07/10 04:00:46;;;;;;;4.37;3.90;;;21.50;99.90;;;;;;4973796;28;20504;-68
2023/07/10 04:03:12;;;;;;;4.70;4.20;;;21.50;99.90;;;;;;4971773;28;20868;-67
2023/07/10 04:05:39;;;;;;;4.73;4.20;;;21.50;99.90;;;;;;4974493;28;20827;-67
2023/07/10 04:08:06;;;;;;;5.03;4.27;;;21.50;99.90;;;;;;4973246;28;21032;-68
2023/07/10 04:10:36;;;;;;;5.77;4.37;;;21.50;99.90;;;;;;4973238;28;20874;-68
2023/07/10 04:13:02;;;;;;;4.20;3.80;;;21.50;99.90;;;;;;4972187;28;20556;-68
2023/07/10 04:15:29;;;;;;;5.00;4.50;;;21.60;99.90;;;;;;4970843;28;20485;-68
2023/07/10 04:17:56;;;;;;;4.37;3.97;;;21.50;99.90;;;;;;4969035;28;20484;-69
2023/07/10 04:20:22;;;;;;;4.70;4.30;;;21.60;99.90;;;;;;4973261;28;20469;-67
2023/07/10 04:22:49;;;;;;;4.60;4.20;;;21.60;99.90;;;;;;4974820;28;20500;-68
2023/07/10 04:25:16;;;;;;;5.37;3.90;;;21.60;99.90;;;;;;4972395;28;20473;-68
2023/07/10 04:27:44;;;;;;;4.67;4.27;;;21.50;99.90;;;;;;4977873;28;20480;-68
2023/07/10 04:30:13;;;;;;;3.97;3.60;;;21.60;99.90;;;;;;4984488;28;20469;-68
2023/07/10 04:32:39;;;;;;;4.77;3.60;;;21.60;99.90;;;;;;4990384;28;20466;-68
2023/07/10 04:35:07;;;;;;;5.57;4.70;;;21.60;99.90;;;;;;4989851;28;20483;-68
2023/07/10 04:37:34;;;;;;;4.10;3.70;;;21.60;99.90;;;;;;4990368;28;20993;-68
2023/07/10 04:40:00;;;;;;;9.20;4.30;;;21.60;99.90;;;;;;4990708;28;20533;-68
2023/07/10 04:42:27;;;;;;;4.43;3.80;;;21.60;99.90;;;;;;4990854;28;20841;-68
2023/07/10 04:44:55;;;;;;;4.73;3.97;;;21.60;99.90;;;;;;4990213;28;20959;-67
2023/07/10 04:49:58;;;;;;;4.20;3.60;;;21.60;99.90;;;;;;4988732;28;20492;-69
2023/07/10 04:52:25;;;;;;;5.80;4.40;;;21.70;99.90;;;;;;4990652;28;20469;-69
2023/07/10 04:54:51;;;;;;;4.37;3.97;;;21.70;99.90;;;;;;4989734;28;20486;-69
2023/07/10 04:57:18;;;;;;;5.73;3.70;;;21.70;99.90;;;;;;4988895;28;21014;-69
2023/07/10 04:59:46;;;;;;;4.77;4.27;;;21.70;99.90;;;;;;4971045;28;20491;-71
2023/07/10 05:02:14;;;;;;;4.43;4.03;;;21.70;99.90;;;;;;4971180;28;20469;-71
2023/07/10 05:04:41;;;;;;;5.83;4.23;;;21.60;99.90;;;;;;4970109;28;20907;-71
2023/07/10 05:07:08;;;;;;;5.63;3.93;;;21.60;99.90;;;;;;4971169;28;20477;-71
2023/07/10 05:09:35;;;;;;;5.00;3.77;;;21.60;99.90;;;;;;4971591;28;20469;-71
2023/07/10 05:12:02;;;;;;;4.60;4.10;;;21.80;99.90;;;;;;4974556;28;20535;-70
2023/07/10 05:14:29;;;;;;;4.77;4.27;;;21.90;99.90;;;;;;4974174;28;20464;-70
2023/07/10 05:16:56;;;;;;;4.07;3.67;;;22.00;99.90;;;;;;4974635;28;20867;-70
2023/07/10 05:19:24;;;;;;;4.90;4.10;;;22.00;99.90;;;;;;4974778;28;20489;-70
2023/07/10 05:21:51;;;;;;;4.73;3.93;;;22.10;99.90;;;;;;4974121;28;20489;-71
2023/07/10 05:24:17;;;;;;;7.90;4.53;;;22.20;99.90;;;;;;4974136;28;20471;-71
2023/07/10 05:26:44;;;;;;;7.67;4.57;;;22.20;99.90;;;;;;4974265;28;20498;-71
2023/07/10 05:29:11;;;;;;;10.63;4.40;;;22.30;99.90;;;;;;4974528;28;20489;-71
2023/07/10 05:31:37;;;;;;;4.40;4.00;;;22.40;99.90;;;;;;4974060;28;20474;-73
2023/07/10 05:34:04;;;;;;;5.93;4.63;;;22.40;99.90;;;;;;4973794;28;20525;-72
2023/07/10 05:36:32;;;;;;;5.63;3.77;;;22.50;99.90;;;;;;4974356;28;20493;-72
2023/07/10 05:38:59;;;;;;;4.27;3.70;;;22.60;99.90;;;;;;4993638;28;20489;-72
2023/07/10 05:41:25;;;;;;;6.73;3.80;;;22.70;99.90;;;;;;4993624;28;20474;-72
2023/07/10 05:43:52;;;;;;;4.53;3.70;;;22.90;99.90;;;;;;4992858;28;20469;-72
2023/07/10 05:46:19;;;;;;;5.90;3.93;;;23.00;99.90;;;;;;4993455;28;20468;-72
2023/07/10 05:48:46;;;;;;;5.20;4.60;;;23.20;99.90;;;;;;4992542;28;20524;-72
2023/07/10 05:51:12;;;;;;;4.20;3.80;;;23.30;99.90;;;;;;4993585;28;20476;-72
2023/07/10 05:53:40;;;;;;;3.80;3.40;;;23.30;99.90;;;;;;4992572;28;20723;-71
2023/07/10 05:56:07;;;;;;;5.97;4.67;;;23.20;99.90;;;;;;4993401;28;20480;-72
2023/07/10 05:58:35;;;;;;;3.90;3.50;;;23.10;99.90;;;;;;4993080;28;20540;-72
2023/07/10 06:01:02;;;;;;;5.60;4.00;;;23.00;99.90;;;;;;4993425;28;20718;-72
2023/07/10 06:03:32;;;;;;;5.17;4.17;;;23.00;99.90;;;;;;4974984;28;20966;-72
2023/07/10 06:06:01;;;;;;;4.43;4.00;;;23.00;99.90;;;;;;4984173;28;20491;-72
2023/07/10 06:08:29;;;;;;;4.10;3.70;;;23.10;99.90;;;;;;4992162;28;20492;-72
2023/07/10 06:10:57;;;;;;;4.50;3.90;;;23.10;99.90;;;;;;4992422;28;20476;-72
2023/07/10 06:13:25;;;;;;;5.17;3.97;;;23.30;99.90;;;;;;4992256;28;20486;-72
2023/07/10 06:15:54;;;;;;;4.77;3.73;;;23.40;99.90;;;;;;4992041;28;21058;-72
2023/07/10 06:18:21;;;;;;;4.20;3.80;;;23.40;99.90;;;;;;4992150;28;20915;-72
2023/07/10 06:20:51;;;;;;;6.10;3.93;;;23.50;99.90;;;;;;4974412;28;20490;-72
2023/07/10 06:23:17;;;;;;;5.37;4.40;;;23.60;99.90;;;;;;4972853;28;20471;-72
2023/07/10 06:25:44;;;;;;;5.60;3.60;;;23.60;99.90;;;;;;4972252;28;20473;-72
2023/07/10 06:28:13;;;;;;;4.17;3.77;;;23.80;99.90;;;;;;4973100;28;20488;-72
2023/07/10 06:30:41;;;;;;;4.03;3.63;;;23.80;99.90;;;;;;4972787;28;20463;-72
2023/07/10 06:33:08;;;;;;;5.13;3.83;;;24.00;99.90;;;;;;4972316;28;20954;-72
2023/07/10 06:35:35;;;;;;;5.40;3.63;;;24.00;99.90;;;;;;4972283;28;20516;-72
2023/07/10 06:38:02;;;;;;;4.20;3.80;;;24.20;99.90;;;;;;4972671;28;20517;-72
2023/07/10 06:40:29;;;;;;;4.33;3.83;;;24.30;99.90;;;;;;4972572;28;20464;-72
2023/07/10 06:42:56;;;;;;;4.33;3.70;;;24.30;99.90;;;;;;4972205;28;20469;-72
2023/07/10 06:45:24;;;;;;;3.63;3.27;;;24.50;99.90;;;;;;4972033;28;20461;-72
2023/07/10 06:47:51;;;;;;;5.67;3.87;;;24.60;99.90;;;;;;4971561;28;20870;-72
2023/07/10 06:50:18;;;;;;;4.83;3.77;;;24.70;99.90;;;;;;4972631;28;20614;-72
2023/07/10 06:52:46;;;;;;;4.10;3.70;;;24.90;99.90;;;;;;4972100;28;20494;-69
2023/07/10 06:55:16;;;;;;;5.30;3.43;;;25.00;99.90;;;;;;4971649;28;20464;-69
2023/07/10 06:57:43;;;;;;;5.30;3.80;;;25.10;99.90;;;;;;4971607;28;20492;-69
2023/07/10 07:00:12;;;;;;;3.67;3.27;;;25.10;99.90;;;;;;4972341;28;20816;-69
2023/07/10 07:02:41;;;;;;;3.83;3.10;;;25.10;99.90;;;;;;4972123;28;20469;-72
2023/07/10 07:05:08;;;;;;;5.60;3.93;;;25.10;99.90;;;;;;4971792;28;20519;-72
2023/07/10 07:07:37;;;;;;;3.67;3.37;;;25.20;99.90;;;;;;4972226;28;20832;-72
2023/07/10 07:10:04;;;;;;;3.73;3.40;;;25.20;99.90;;;;;;4971538;28;20468;-72
2023/07/10 07:12:31;;;;;;;4.60;3.53;;;25.20;99.90;;;;;;4971963;28;20793;-72
2023/07/10 07:14:58;;;;;;;3.47;3.17;;;25.30;99.90;;;;;;4974143;28;20517;-72
2023/07/10 07:17:25;;;;;;;4.20;3.77;;;25.40;99.90;;;;;;4985160;28;20497;-69
2023/07/10 07:19:53;;;;;;;3.40;3.10;;;25.50;99.90;;;;;;4972181;28;20466;-69
2023/07/10 07:22:19;;;;;;;4.63;3.23;;;25.60;99.90;;;;;;4971573;28;20469;-69
2023/07/10 07:24:46;;;;;;;4.33;3.60;;;25.60;99.90;;;;;;4971514;28;20462;-69
2023/07/10 07:27:14;;;;;;;3.60;3.20;;;25.60;99.90;;;;;;4971771;28;20560;-69
2023/07/10 07:29:40;;;;;;;3.60;3.30;;;25.50;99.90;;;;;;4971921;28;20898;-69
2023/07/10 07:32:09;;;;;;;4.43;3.80;;;25.40;99.90;;;;;;4965074;28;20470;-69
2023/07/10 07:34:36;;;;;;;3.97;3.57;;;25.40;99.90;;;;;;4970948;28;20459;-70
2023/07/10 07:37:05;;;;;;;4.40;3.70;;;25.50;99.90;;;;;;4971680;28;20681;-69
2023/07/10 07:39:32;;;;;;;3.63;3.33;;;25.60;99.90;;;;;;4971374;28;20502;-69
2023/07/10 07:42:00;;;;;;;3.50;3.13;;;25.60;99.90;;;;;;4971480;28;20518;-70
2023/07/10 07:44:27;;;;;;;3.63;3.30;;;25.70;99.90;;;;;;4970936;28;20499;-69
2023/07/10 07:46:54;;;;;;;4.50;3.07;;;25.70;99.90;;;;;;4970337;28;20847;-69
2023/07/10 07:49:23;;;;;;;4.50;3.67;;;25.80;99.90;;;;;;4971295;28;20498;-69
2023/07/10 07:51:50;;;;;;;6.20;3.00;;;25.90;99.90;;;;;;4971579;28;20470;-69
2023/07/10 07:54:19;;;;;;;3.90;3.57;;;26.00;99.90;;;;;;4970512;28;20469;-69
2023/07/10 07:56:46;;;;;;;4.00;3.60;;;26.00;99.90;;;;;;4971519;28;20860;-68
2023/07/10 07:59:13;;;;;;;4.80;4.00;;;26.00;99.90;;;;;;4970676;28;20485;-69
2023/07/10 08:01:40;;;;;;;3.60;3.30;;;26.10;99.90;;;;;;4971352;28;20467;-69
2023/07/10 08:04:07;;;;;;;4.30;3.20;;;26.20;99.90;;;;;;4970450;28;20463;-69
2023/07/10 08:06:34;;;;;;;4.43;3.83;;;26.30;99.90;;;;;;4971292;28;20467;-69
2023/07/10 08:09:02;;;;;;;4.27;3.83;;;26.40;99.90;;;;;;4970913;28;20482;-69
2023/07/10 08:11:30;;;;;;;7.47;4.00;;;26.40;99.90;;;;;;4970997;28;20463;-69
2023/07/10 08:13:57;;;;;;;6.13;3.17;;;26.50;99.90;;;;;;4968378;28;20587;-71
2023/07/10 08:16:24;;;;;;;3.70;3.40;;;26.50;99.90;;;;;;4974916;28;20498;-71
2023/07/10 08:18:52;;;;;;;4.57;3.90;;;26.60;99.90;;;;;;4979534;28;20518;-71
2023/07/10 08:21:19;;;;;;;4.63;3.63;;;26.60;99.90;;;;;;4978597;28;20895;-71
2023/07/10 08:23:47;;;;;;;4.50;3.70;;;26.60;99.90;;;;;;4963213;28;20566;-71
2023/07/10 08:26:14;;;;;;;4.00;3.60;;;26.60;99.90;;;;;;4963351;28;20835;-71
2023/07/10 08:28:42;;;;;;;3.57;3.27;;;26.60;99.90;;;;;;4986305;28;20482;-71
2023/07/10 08:31:09;;;;;;;6.23;3.97;;;26.60;99.90;;;;;;4990230;28;20473;-71
2023/07/10 08:33:36;;;;;;;4.43;4.00;;;26.70;99.90;;;;;;4989860;28;20463;-71
2023/07/10 08:36:05;;;;;;;4.60;3.37;;;26.60;99.90;;;;;;4989090;28;20486;-71
2023/07/10 08:38:33;;;;;;;4.67;3.70;;;26.60;99.90;;;;;;4976969;28;20487;-71
2023/07/10 08:41:02;;;;;;;4.00;3.60;;;26.60;99.90;;;;;;4970426;28;20459;-71
2023/07/10 08:43:31;;;;;;;7.43;3.57;;;26.60;99.90;;;;;;4971916;28;20467;-71
2023/07/10 08:46:04;;;;;;;4.83;3.40;;;26.70;99.90;;;;;;4975094;28;20989;-72
2023/07/10 08:48:35;;;;;;;5.97;4.00;;;26.80;99.90;;;;;;4975250;28;20522;-71
2023/07/10 08:51:12;;;;;;;4.60;4.20;;;26.80;99.90;;;;;;4975195;28;20846;-71
2023/07/10 08:53:44;;;;;;;4.43;3.90;;;26.90;99.90;;;;;;4974944;28;20473;-71
2023/07/10 08:56:21;;;;;;;4.37;3.90;;;27.00;99.90;;;;;;4974969;28;20494;-71
2023/07/10 08:58:48;;;;;;;4.47;3.80;;;27.10;99.90;;;;;;4975141;28;20896;-71
2023/07/10 09:01:23;;;;;;;5.13;3.90;;;27.30;99.90;;;;;;4975150;28;20474;-72
2023/07/10 09:03:52;;;;;;;4.63;3.77;;;27.30;99.90;;;;;;4974628;28;20966;-71
2023/07/10 09:06:21;;;;;;;4.00;3.47;;;27.30;99.90;;;;;;4978897;28;20454;-71
2023/07/10 09:08:51;;;;;;;3.93;3.53;;;27.30;99.90;;;;;;4994275;28;20486;-71
2023/07/10 09:11:18;;;;;;;4.80;3.70;;;27.10;99.90;;;;;;4993464;28;20458;-71
2023/07/10 09:13:52;;;;;;;8.63;4.20;;;27.10;99.90;;;;;;4993762;28;20462;-71
2023/07/10 09:16:21;;;;;;;6.77;4.00;;;27.00;99.90;;;;;;4967311;28;20857;-72
2023/07/10 09:18:52;;;;;;;3.87;3.53;;;27.00;99.90;;;;;;4974658;28;20510;-71
2023/07/10 09:21:21;;;;;;;4.67;3.80;;;27.00;99.90;;;;;;4967070;28;20470;-71
2023/07/10 09:23:48;;;;;;;4.57;4.07;;;27.10;99.90;;;;;;4974129;28;20466;-71
2023/07/10 09:26:18;;;;;;;5.37;4.10;;;27.10;99.90;;;;;;4974436;28;20470;-71
2023/07/10 09:28:58;;;;;;;4.00;3.47;;;27.10;99.90;;;;;;4981745;28;20529;-72
2023/07/10 09:31:40;;;;;;;4.20;3.87;;;27.10;99.90;;;;;;4994132;28;20973;-71
2023/07/10 09:34:11;;;;;;;4.67;4.03;;;27.00;99.90;;;;;;4993490;28;20470;-71
2023/07/10 09:36:38;;;;;;;4.83;3.90;;;27.10;99.90;;;;;;4994015;28;20533;-71
2023/07/10 09:39:05;;;;;;;3.97;3.57;;;27.20;99.90;;;;;;4993557;28;20482;-72
2023/07/10 09:41:31;;;;;;;6.23;4.37;;;27.30;99.90;;;;;;4993943;28;20485;-71
2023/07/10 09:44:00;;;;;;;4.47;4.07;;;27.20;99.90;;;;;;4992922;28;20825;-71
2023/07/10 09:46:30;;;;;;;4.50;4.10;;;27.20;99.90;;;;;;4993899;28;20946;-72
2023/07/10 09:48:58;;;;;;;4.50;4.10;;;27.30;99.90;;;;;;4993270;28;20886;-71
2023/07/10 09:51:25;;;;;;;4.57;3.90;;;27.30;99.90;;;;;;4993721;28;20469;-71
2023/07/10 09:53:54;;;;;;;5.70;3.97;;;27.20;99.90;;;;;;4992873;28;20462;-71
2023/07/10 09:56:24;;;;;;;5.67;4.63;;;27.20;99.90;;;;;;4992870;28;21072;-71
2023/07/10 09:58:54;;;;;;;4.17;3.80;;;27.20;99.90;;;;;;4993272;28;20475;-71
2023/07/10 10:01:24;;;;;;;5.53;4.23;;;27.30;99.90;;;;;;4993338;28;20466;-71
2023/07/10 10:03:54;;;;;;;3.80;3.50;;;27.30;99.90;;;;;;4992875;28;20473;-71
2023/07/10 10:06:24;;;;;;;4.83;4.33;;;27.40;99.90;;;;;;4992934;28;20463;-71
2023/07/10 10:08:51;;;;;;;5.60;4.27;;;27.50;99.90;;;;;;4993157;28;20482;-71
2023/07/10 10:11:19;;;;;;;4.23;3.70;;;27.50;99.90;;;;;;4992786;28;20849;-71
2023/07/10 10:13:49;;;;;;;4.50;4.10;;;27.50;99.90;;;;;;4992634;28;20537;-72
2023/07/10 10:16:24;;;;;;;4.17;3.73;;;27.70;99.90;;;;;;4983500;28;20471;-71
2023/07/10 10:18:58;;;;;;;6.20;4.43;;;27.80;99.90;;;;;;4973668;28;20860;-71
2023/07/10 10:21:26;;;;;;;3.80;3.50;;;28.00;99.90;;;;;;4973914;28;20462;-72
2023/07/10 10:23:57;;;;;;;3.80;3.50;;;28.10;99.90;;;;;;4972975;28;20467;-72
2023/07/10 10:26:57;;;;;;;4.47;4.00;;;28.20;99.90;;;;;;4973631;28;20460;-72
2023/07/10 10:29:52;;;;;;;4.20;3.80;;;28.10;99.90;;;;;;4972770;28;20491;-72
2023/07/10 10:32:27;;;;;;;4.10;3.73;;;28.00;99.90;;;;;;4973541;28;20465;-71
2023/07/10 10:35:03;;;;;;;4.77;4.27;;;28.00;99.90;;;;;;4980141;28;20465;-72
2023/07/10 10:37:43;;;;;;;4.07;3.67;;;28.00;99.90;;;;;;4965968;28;20490;-72
2023/07/10 10:40:22;;;;;;;5.53;3.80;;;28.00;99.90;;;;;;4973295;28;20467;-72
2023/07/10 10:42:53;;;;;;;3.80;3.50;;;28.10;99.90;;;;;;4973203;28;20832;-72
2023/07/10 10:45:25;;;;;;;4.80;4.37;;;28.10;99.90;;;;;;4972740;28;20491;-71
2023/07/10 10:50:44;;;;;;;3.70;3.40;;;28.10;99.90;;;;;;5065158;23;20501;-93
2023/07/10 10:53:27;;;;;;;5.23;4.70;;;28.10;99.90;;;;;;5056256;28;20448;-93
2023/07/10 10:56:06;;;;;;;5.90;4.50;;;28.10;99.90;;;;;;5045745;28;20485;-93
2023/07/10 10:58:46;;;;;;;4.43;4.03;;;28.20;99.90;;;;;;5042414;28;20487;-93
2023/07/10 11:01:34;;;;;;;4.13;3.73;;;28.30;99.90;;;;;;5056918;28;20456;-92
2023/07/10 11:04:11;;;;;;;5.00;3.97;;;28.50;99.90;;;;;;5056516;28;20441;-94
2023/07/10 11:06:47;;;;;;;4.17;3.77;;;28.60;99.90;;;;;;5057482;28;20437;-92
2023/07/10 11:09:17;;;;;;;4.37;3.97;;;28.60;99.90;;;;;;5057883;28;20467;-94
2023/07/10 11:12:06;;;;;;;5.20;4.23;;;28.60;99.90;;;;;;5057525;28;20443;-94
2023/07/10 11:14:33;;;;;;;4.23;3.90;;;28.60;99.90;;;;;;5056131;28;20467;-94
2023/07/10 11:17:00;;;;;;;4.37;3.83;;;28.70;99.90;;;;;;5055280;28;20559;-94
2023/07/10 11:19:31;;;;;;;4.77;4.30;;;28.90;99.90;;;;;;5056332;28;20500;-92
2023/07/10 11:22:10;;;;;;;4.50;3.50;;;29.10;99.90;;;;;;5056634;28;20445;-92
2023/07/10 11:24:39;;;;;;;4.70;3.87;;;29.20;99.90;;;;;;5051006;28;20551;-94
2023/07/10 11:27:18;;;;;;;3.80;3.37;;;29.30;99.90;;;;;;5057097;28;20440;-92
2023/07/10 11:29:56;;;;;;;4.03;3.63;;;29.50;99.90;;;;;;5057346;28;20740;-92
2023/07/10 11:32:26;;;;;;;4.70;4.20;;;29.50;99.90;;;;;;5056768;28;20457;-93
2023/07/10 11:35:15;;;;;;;4.03;3.63;;;29.50;99.90;;;;;;5056035;28;20483;-94
2023/07/10 11:38:16;;;;;;;4.10;3.70;;;29.40;99.90;;;;;;5056815;28;20457;-93
2023/07/10 11:40:54;;;;;;;4.67;4.23;;;29.40;99.90;;;;;;5057334;28;20440;-92
2023/07/10 11:43:57;;;;;;;3.60;3.30;;;29.60;99.90;;;;;;5057072;28;20448;-91
2023/07/10 11:46:29;;;;;;;4.50;4.10;;;29.80;99.90;;;;;;5016325;28;20465;-93
2023/07/10 11:49:14;;;;;;;5.23;4.00;;;29.90;99.90;;;;;;5051246;28;20480;-94
2023/07/10 11:51:42;;;;;;;4.00;3.60;;;29.90;99.90;;;;;;5054690;28;20437;-93
2023/07/10 11:54:37;;;;;;;4.80;3.60;;;30.00;99.90;;;;;;5072607;28;20517;-94
2023/07/10 11:57:22;;;;;;;3.70;3.40;;;30.20;94.90;;;;;;5076978;28;20459;-94
2023/07/10 11:59:52;;;;;;;4.30;3.63;;;30.20;94.30;;;;;;5076613;28;20464;-91
2023/07/10 12:02:32;;;;;;;4.00;3.60;;;30.30;93.90;;;;;;5075004;28;20447;-92
2023/07/10 12:05:01;;;;;;;4.03;3.63;;;30.40;91.30;;;;;;5075767;28;20451;-92
2023/07/10 12:07:30;;;;;;;3.13;2.93;;;30.50;90.80;;;;;;5074649;28;20483;-92
2023/07/10 12:10:03;;;;;;;4.47;3.60;;;30.50;91.10;;;;;;5076030;28;20498;-92
2023/07/10 12:12:32;;;;;;;3.97;3.60;;;30.70;92.40;;;;;;5072880;28;20451;-92
2023/07/10 12:15:02;;;;;;;4.17;3.07;;;30.80;93.50;;;;;;5072430;28;20531;-92
2023/07/10 12:17:31;;;;;;;4.10;3.70;;;30.90;90.10;;;;;;5071062;28;20460;-91
2023/07/10 12:20:03;;;;;;;4.27;3.60;;;30.90;90.60;;;;;;5070529;28;20475;-91
2023/07/10 12:22:37;;;;;;;4.23;3.43;;;30.90;91.40;;;;;;5070389;28;20472;-92
2023/07/10 12:25:13;;;;;;;3.53;3.23;;;31.00;90.90;;;;;;5070546;28;20996;-93
2023/07/10 12:27:41;;;;;;;3.87;3.47;;;31.00;91.50;;;;;;5070800;28;20475;-93
2023/07/10 12:30:18;;;;;;;3.30;3.00;;;31.20;90.10;;;;;;5069725;28;20479;-95
2023/07/10 12:32:47;;;;;;;5.30;3.10;;;31.30;91.40;;;;;;5069059;28;20530;-94
2023/07/10 12:35:17;;;;;;;3.80;3.50;;;31.30;92.60;;;;;;5070122;28;20464;-91
2023/07/10 12:37:51;;;;;;;3.60;3.30;;;31.30;91.30;;;;;;5071443;28;20460;-92
2023/07/10 12:40:21;;;;;;;4.10;3.33;;;31.30;91.30;;;;;;5072376;28;20487;-93
2023/07/10 12:42:49;;;;;;;3.30;3.00;;;31.30;90.70;;;;;;5074939;28;20462;-91
2023/07/10 12:45:29;;;;;;;3.97;3.57;;;31.30;91.70;;;;;;5056672;28;20449;-90
2023/07/10 12:48:04;;;;;;;4.53;3.23;;;31.40;92.00;;;;;;5056575;28;20539;-91
2023/07/10 12:50:43;;;;;;;4.00;3.50;;;31.40;92.10;;;;;;5057146;28;20436;-92
2023/07/10 12:53:20;;;;;;;3.47;2.90;;;31.50;93.00;;;;;;5057181;28;20476;-90
2023/07/10 12:55:54;;;;;;;3.30;3.00;;;31.60;92.20;;;;;;5056956;28;20482;-91
2023/07/10 12:58:23;;;;;;;4.33;3.50;;;31.70;93.00;;;;;;5062937;28;20723;-90
2023/07/10 13:00:59;;;;;;;3.63;3.10;;;31.70;91.40;;;;;;5077194;28;20436;-92
2023/07/10 13:03:29;;;;;;;3.80;3.50;;;31.70;92.60;;;;;;5076705;28;20462;-91
2023/07/10 13:06:00;;;;;;;5.40;3.37;;;31.80;92.00;;;;;;5075528;28;20518;-90